Time;durP1;ratioP1;P1;durP2;ratioP2;P2;SDS_P1;SDS_P2;PMS_P1;PMS_P2;Temp;Humidity;BMP_temperature;BMP_pressure;BME280_temperature;BME280_humidity;BME280_pressure;Samples;Min_cycle;Max_cycle;Signal;HPM_P1;HPM_P2
2021/12/04 00:02:27;;;;;;;3.80;2.85;;;1.90;99.90;;;;;;5049443;28;20213;-71
2021/12/04 00:04:56;;;;;;;3.35;2.65;;;2.00;99.90;;;;;;5049629;28;20213;-71
2021/12/04 00:07:23;;;;;;;4.88;3.15;;;2.00;99.90;;;;;;5050133;28;20225;-71
2021/12/04 00:09:51;;;;;;;3.13;2.83;;;2.00;99.90;;;;;;5046559;28;20200;-71
2021/12/04 00:12:20;;;;;;;4.60;3.30;;;2.00;99.90;;;;;;5048767;28;20205;-71
2021/12/04 00:14:48;;;;;;;3.17;2.53;;;2.10;99.90;;;;;;5048604;28;20252;-71
2021/12/04 00:17:16;;;;;;;3.30;2.90;;;2.10;99.90;;;;;;5048814;28;20201;-71
2021/12/04 00:19:43;;;;;;;3.53;3.00;;;2.20;99.90;;;;;;5050241;28;20294;-71
2021/12/04 00:22:09;;;;;;;3.85;2.55;;;2.10;99.90;;;;;;5068474;28;20671;-71
2021/12/04 00:24:37;;;;;;;3.15;2.85;;;2.20;99.90;;;;;;5068449;28;20232;-71
2021/12/04 00:27:05;;;;;;;7.20;2.70;;;2.20;99.90;;;;;;5068365;28;20224;-71
2021/12/04 00:29:33;;;;;;;3.13;2.72;;;2.20;99.90;;;;;;5068754;28;20776;-71
2021/12/04 00:32:02;;;;;;;3.80;2.88;;;2.20;99.90;;;;;;5067340;28;20258;-71
2021/12/04 00:34:31;;;;;;;3.50;2.53;;;2.20;99.90;;;;;;5068455;28;20684;-71
2021/12/04 00:37:16;;;;;;;3.28;2.90;;;2.20;99.90;;;;;;5068357;28;20197;-71
2021/12/04 00:50:42;;;;;;;3.08;2.65;;;2.20;99.90;;;;;;5068294;28;20734;-71
2021/12/04 00:53:09;;;;;;;3.05;2.80;;;2.20;99.90;;;;;;5067706;28;20778;-71
2021/12/04 00:55:35;;;;;;;5.65;2.90;;;2.20;99.90;;;;;;5068104;28;20223;-71
2021/12/04 00:58:03;;;;;;;2.85;2.58;;;2.30;99.90;;;;;;5068062;28;20208;-71
2021/12/04 01:00:32;;;;;;;3.38;2.95;;;2.30;99.90;;;;;;5067950;28;20281;-71
2021/12/04 01:02:59;;;;;;;5.45;2.90;;;2.20;99.90;;;;;;5066805;28;20266;-71
2021/12/04 01:05:26;;;;;;;3.25;2.85;;;2.20;99.90;;;;;;5067758;28;20579;-71
2021/12/04 01:07:53;;;;;;;3.20;2.85;;;2.20;99.90;;;;;;5067152;28;20243;-71
2021/12/04 01:10:19;;;;;;;3.42;3.13;;;2.20;99.90;;;;;;5067692;28;20715;-70
2021/12/04 01:12:49;;;;;;;3.55;2.83;;;2.20;99.90;;;;;;5067232;28;20205;-70
2021/12/04 01:15:16;;;;;;;4.18;3.47;;;2.20;99.90;;;;;;5067404;28;20558;-71
2021/12/04 01:17:44;;;;;;;3.15;2.78;;;2.30;99.90;;;;;;5067147;28;20208;-71
2021/12/04 01:20:11;;;;;;;3.88;2.85;;;2.30;99.90;;;;;;5067606;28;20201;-71
2021/12/04 01:22:39;;;;;;;4.13;3.15;;;2.30;99.90;;;;;;5066495;28;20208;-71
2021/12/04 01:25:06;;;;;;;6.53;3.30;;;2.30;99.90;;;;;;5067477;28;20538;-71
2021/12/04 01:27:33;;;;;;;3.00;2.70;;;2.30;99.90;;;;;;5067350;28;20235;-71
2021/12/04 01:30:00;;;;;;;3.65;3.05;;;2.30;99.90;;;;;;5067144;28;20204;-71
2021/12/04 01:32:26;;;;;;;3.53;3.00;;;2.30;99.90;;;;;;5067249;28;20292;-72
2021/12/04 01:34:55;;;;;;;4.38;3.40;;;2.30;99.90;;;;;;5045111;28;20212;-72
2021/12/04 01:37:21;;;;;;;4.28;3.47;;;2.20;99.90;;;;;;5027359;28;20210;-72
2021/12/04 01:39:48;;;;;;;4.15;2.95;;;2.10;99.90;;;;;;5042403;28;20204;-72
2021/12/04 01:42:18;;;;;;;3.50;3.15;;;2.10;99.90;;;;;;5127131;22;20229;-69
2021/12/04 01:44:44;;;;;;;2.70;2.50;;;2.10;99.90;;;;;;5067199;28;20221;-68
2021/12/04 01:47:14;;;;;;;3.58;3.10;;;2.00;99.90;;;;;;5068130;28;20224;-69
2021/12/04 01:49:40;;;;;;;4.32;3.17;;;2.00;99.90;;;;;;5070768;28;20208;-68
2021/12/04 01:52:09;;;;;;;4.90;3.60;;;2.00;99.90;;;;;;5070298;28;20207;-68
2021/12/04 01:54:36;;;;;;;3.42;3.13;;;1.90;99.90;;;;;;5070600;28;20242;-68
2021/12/04 01:57:04;;;;;;;3.50;3.20;;;1.80;99.90;;;;;;5067817;28;20615;-67
2021/12/04 01:59:31;;;;;;;3.92;2.75;;;1.70;99.90;;;;;;5050896;28;20205;-67
2021/12/04 02:01:58;;;;;;;3.22;2.92;;;1.70;99.90;;;;;;5050389;28;20201;-67
2021/12/04 02:04:25;;;;;;;3.00;2.70;;;1.60;99.90;;;;;;5050657;28;20221;-67
2021/12/04 02:06:52;;;;;;;3.45;3.05;;;1.60;99.90;;;;;;5050846;28;20213;-67
2021/12/04 02:09:20;;;;;;;4.15;2.97;;;1.70;99.90;;;;;;5050583;28;20223;-68
2021/12/04 02:11:47;;;;;;;3.28;2.92;;;1.70;99.90;;;;;;5050421;28;20208;-68
2021/12/04 02:14:14;;;;;;;4.00;3.53;;;1.60;99.90;;;;;;5050322;28;20223;-68
2021/12/04 02:16:40;;;;;;;4.55;3.50;;;1.60;99.90;;;;;;5050744;28;20259;-67
2021/12/04 02:19:07;;;;;;;3.85;3.10;;;1.50;99.90;;;;;;5051049;28;20201;-67
2021/12/04 02:21:35;;;;;;;4.97;3.42;;;1.50;99.90;;;;;;5050647;28;20572;-67
2021/12/04 02:24:02;;;;;;;4.05;3.22;;;1.50;99.90;;;;;;5050636;28;20613;-67
2021/12/04 02:26:29;;;;;;;4.30;3.67;;;1.50;99.90;;;;;;5051105;28;20227;-68
2021/12/04 02:28:57;;;;;;;4.68;3.55;;;1.50;99.90;;;;;;5050908;28;20229;-67
2021/12/04 02:31:24;;;;;;;5.35;3.08;;;1.50;99.90;;;;;;5049947;28;20315;-68
2021/12/04 02:33:51;;;;;;;4.80;3.33;;;1.40;99.90;;;;;;5050670;28;20224;-68
2021/12/04 02:36:17;;;;;;;4.78;3.72;;;1.40;99.90;;;;;;5050423;28;20205;-68
2021/12/04 02:38:50;;;;;;;5.25;3.55;;;1.40;99.90;;;;;;5050754;28;20193;-68
2021/12/04 02:41:18;;;;;;;6.63;3.70;;;1.30;99.90;;;;;;5049688;28;20205;-68
2021/12/04 02:43:45;;;;;;;4.28;3.40;;;1.30;99.90;;;;;;5050551;28;20224;-69
2021/12/04 02:46:12;;;;;;;5.55;4.00;;;1.30;99.90;;;;;;5050064;28;20317;-68
2021/12/04 02:48:39;;;;;;;3.80;3.30;;;1.30;99.90;;;;;;5050348;28;20719;-68
2021/12/04 02:51:06;;;;;;;5.20;3.65;;;1.30;99.90;;;;;;5049648;28;20201;-67
2021/12/04 02:53:33;;;;;;;3.90;3.58;;;1.30;99.90;;;;;;5050329;28;20244;-68
2021/12/04 02:56:01;;;;;;;6.30;4.18;;;1.30;99.90;;;;;;5050445;28;20208;-68
2021/12/04 02:58:28;;;;;;;4.68;3.70;;;1.30;99.90;;;;;;5050296;28;20205;-67
2021/12/04 03:00:54;;;;;;;5.90;3.90;;;1.30;99.90;;;;;;5049944;28;20205;-67
2021/12/04 03:03:21;;;;;;;7.35;3.53;;;1.20;99.90;;;;;;5049959;28;20244;-67
2021/12/04 03:05:51;;;;;;;4.30;3.70;;;1.20;99.90;;;;;;5050385;28;20209;-67
2021/12/04 03:08:18;;;;;;;7.85;4.25;;;1.20;99.90;;;;;;5053192;28;20216;-67
2021/12/04 03:10:47;;;;;;;3.97;3.58;;;1.30;99.90;;;;;;5053817;28;20201;-67
2021/12/04 03:13:18;;;;;;;4.60;3.60;;;1.30;99.90;;;;;;5053347;28;20229;-68
2021/12/04 03:15:48;;;;;;;3.83;3.13;;;1.30;99.90;;;;;;5053669;28;20668;-68
2021/12/04 03:18:14;;;;;;;4.15;3.75;;;1.30;99.90;;;;;;5053688;28;20734;-68
2021/12/04 03:20:44;;;;;;;4.25;3.78;;;1.30;99.90;;;;;;5053859;28;20623;-68
2021/12/04 03:23:18;;;;;;;6.18;4.18;;;1.30;99.90;;;;;;5053276;28;20307;-68
2021/12/04 03:25:49;;;;;;;5.47;3.95;;;1.30;99.90;;;;;;5053774;28;20299;-68
2021/12/04 03:28:18;;;;;;;4.70;4.00;;;1.30;99.90;;;;;;5053631;28;20221;-69
2021/12/04 03:30:48;;;;;;;5.32;3.92;;;1.30;99.90;;;;;;5053814;28;20216;-68
2021/12/04 03:41:28;;;;;;;6.05;3.40;;;1.40;99.90;;;;;;5053064;28;20292;-68
2021/12/04 03:43:56;;;;;;;4.20;3.28;;;1.50;99.90;;;;;;5053350;28;20229;-68
2021/12/04 03:46:24;;;;;;;3.67;3.10;;;1.60;99.90;;;;;;5053500;28;20204;-68
2021/12/04 03:48:51;;;;;;;3.30;3.00;;;1.70;99.90;;;;;;5053186;28;20312;-68
2021/12/04 03:51:19;;;;;;;3.88;2.72;;;1.70;99.90;;;;;;5053085;28;20205;-67
2021/12/04 03:53:45;;;;;;;3.28;2.22;;;1.80;99.90;;;;;;5053663;28;20217;-68
2021/12/04 03:56:14;;;;;;;4.30;2.70;;;1.90;99.90;;;;;;5053212;28;20228;-68
2021/12/04 03:58:41;;;;;;;2.85;2.30;;;1.90;99.90;;;;;;5053317;28;20201;-68
2021/12/04 04:01:09;;;;;;;2.90;2.53;;;2.00;99.90;;;;;;5052767;28;20216;-68
2021/12/04 04:03:36;;;;;;;2.42;2.22;;;2.10;99.90;;;;;;5053233;28;20217;-68
2021/12/04 04:06:03;;;;;;;2.47;2.17;;;2.10;99.90;;;;;;5053009;28;20197;-68
2021/12/04 04:08:29;;;;;;;4.82;4.43;;;2.10;99.90;;;;;;5053002;28;20220;-68
2021/12/04 04:10:56;;;;;;;2.05;1.67;;;2.20;99.90;;;;;;5052596;28;20207;-68
2021/12/04 04:13:23;;;;;;;2.20;1.92;;;2.20;99.90;;;;;;5052294;28;20221;-68
2021/12/04 04:15:50;;;;;;;2.13;1.50;;;2.30;99.90;;;;;;5052918;28;20228;-68
2021/12/04 04:18:18;;;;;;;2.15;1.70;;;2.30;99.90;;;;;;5052228;28;20205;-68
2021/12/04 04:20:45;;;;;;;2.00;1.80;;;2.40;99.90;;;;;;5052798;28;20283;-68
2021/12/04 04:23:12;;;;;;;1.75;1.50;;;2.40;99.90;;;;;;5052044;28;20704;-68
2021/12/04 04:25:38;;;;;;;3.45;1.80;;;2.40;99.90;;;;;;5052806;28;20201;-69
2021/12/04 04:28:05;;;;;;;1.48;1.20;;;2.50;99.90;;;;;;5052589;28;20217;-67
2021/12/04 04:30:32;;;;;;;1.30;1.20;;;2.50;99.90;;;;;;5052743;28;20201;-68
2021/12/04 04:33:00;;;;;;;1.17;1.08;;;2.50;99.90;;;;;;5052138;28;20250;-67
2021/12/04 04:35:30;;;;;;;2.65;1.40;;;2.50;99.90;;;;;;5052613;28;20213;-67
2021/12/04 04:38:04;;;;;;;1.35;1.10;;;2.60;99.90;;;;;;5052690;28;20193;-67
2021/12/04 04:59:53;;;;;;;1.40;1.13;;;2.70;99.90;;;;;;5052498;28;20713;-67
2021/12/04 05:02:40;;;;;;;0.90;0.82;;;2.80;99.90;;;;;;5051288;28;20255;-67
2021/12/04 05:13:34;;;;;;;1.40;0.90;;;2.90;99.90;;;;;;4990127;28;20309;-68
2021/12/04 05:16:10;;;;;;;1.00;0.80;;;3.00;99.90;;;;;;5036530;28;20295;-67
2021/12/04 05:18:40;;;;;;;1.00;0.90;;;3.10;99.90;;;;;;5051783;28;20296;-68
2021/12/04 05:21:10;;;;;;;2.00;0.80;;;3.10;99.90;;;;;;5050987;28;20292;-68
2021/12/04 05:23:40;;;;;;;1.05;0.90;;;3.10;99.90;;;;;;5051505;28;20221;-68
2021/12/04 05:26:08;;;;;;;2.03;0.80;;;3.10;99.90;;;;;;5051336;28;20200;-67
2021/12/04 05:28:35;;;;;;;0.80;0.70;;;3.20;99.90;;;;;;5051443;28;20301;-68
2021/12/04 05:31:02;;;;;;;0.90;0.80;;;3.20;99.90;;;;;;5050489;28;20664;-67
2021/12/04 05:33:29;;;;;;;2.35;0.90;;;3.20;99.90;;;;;;5051280;28;20229;-68
2021/12/04 05:35:56;;;;;;;1.10;0.77;;;3.20;99.90;;;;;;5051534;28;20207;-67
2021/12/04 05:38:24;;;;;;;0.80;0.80;;;3.30;99.90;;;;;;5051278;28;20197;-68
2021/12/04 05:40:52;;;;;;;1.10;0.77;;;3.40;99.90;;;;;;5050846;28;20209;-67
2021/12/04 05:43:22;;;;;;;1.52;0.80;;;3.40;99.90;;;;;;5051238;28;20225;-68
2021/12/04 05:45:53;;;;;;;0.98;0.80;;;3.40;99.90;;;;;;5051529;28;20233;-67
2021/12/04 05:48:28;;;;;;;1.08;0.80;;;3.50;99.90;;;;;;5051152;28;20315;-67
2021/12/04 05:54:03;;;;;;;0.80;0.80;;;3.50;99.90;;;;;;5051159;28;20243;-68
2021/12/04 05:56:34;;;;;;;1.67;0.90;;;3.50;99.90;;;;;;5050849;28;20660;-67
2021/12/04 05:59:01;;;;;;;0.80;0.80;;;3.50;99.90;;;;;;5051064;28;20207;-68
2021/12/04 06:01:29;;;;;;;1.13;0.82;;;3.60;99.90;;;;;;5050291;28;20224;-68
2021/12/04 06:03:56;;;;;;;1.27;0.77;;;3.60;99.90;;;;;;5050873;28;20711;-68
2021/12/04 06:06:23;;;;;;;0.90;0.70;;;3.60;99.90;;;;;;5050614;28;20212;-68
2021/12/04 06:08:50;;;;;;;1.00;0.80;;;3.60;99.90;;;;;;5050840;28;20630;-68
2021/12/04 06:11:16;;;;;;;0.95;0.70;;;3.60;99.90;;;;;;5050327;28;20212;-68
2021/12/04 06:13:45;;;;;;;0.82;0.80;;;3.50;99.90;;;;;;5051018;28;20221;-68
2021/12/04 06:16:12;;;;;;;1.52;0.70;;;3.60;99.90;;;;;;5050574;28;20603;-68
2021/12/04 06:18:39;;;;;;;1.17;0.80;;;3.60;99.90;;;;;;5050632;28;20675;-69
2021/12/04 06:23:50;;;;;;;0.80;0.73;;;3.70;99.90;;;;;;5050757;28;20697;-68
2021/12/04 06:26:17;;;;;;;0.80;0.70;;;3.60;99.90;;;;;;5050436;28;20201;-66
2021/12/04 06:28:45;;;;;;;1.05;0.88;;;3.70;99.90;;;;;;5050684;28;20591;-68
2021/12/04 06:31:11;;;;;;;2.58;0.73;;;3.70;99.90;;;;;;5050131;28;20209;-68
2021/12/04 06:33:40;;;;;;;0.82;0.70;;;3.70;99.90;;;;;;5050759;28;20220;-67
2021/12/04 06:36:07;;;;;;;1.55;1.25;;;3.70;99.90;;;;;;5050376;28;20205;-68
2021/12/04 06:38:35;;;;;;;1.13;0.88;;;3.80;99.90;;;;;;5050584;28;20205;-67
2021/12/04 06:41:02;;;;;;;2.25;0.88;;;3.80;99.90;;;;;;5051507;28;20204;-67
2021/12/04 06:43:29;;;;;;;0.80;0.73;;;3.90;99.90;;;;;;5054405;28;20224;-67
2021/12/04 06:45:59;;;;;;;1.15;1.05;;;3.90;99.90;;;;;;5054490;28;20197;-67
2021/12/04 06:48:33;;;;;;;1.10;0.82;;;3.90;99.90;;;;;;5054210;28;20229;-68
2021/12/04 06:51:04;;;;;;;0.80;0.70;;;4.00;99.90;;;;;;5054219;28;20575;-68
2021/12/04 06:53:36;;;;;;;0.70;0.60;;;4.00;99.90;;;;;;5054633;28;20217;-68
2021/12/04 06:56:05;;;;;;;0.77;0.70;;;4.00;99.90;;;;;;5054317;28;20668;-67
2021/12/04 06:58:32;;;;;;;0.90;0.80;;;4.00;99.90;;;;;;5054573;28;20258;-67
2021/12/04 07:01:00;;;;;;;1.05;0.80;;;4.10;99.90;;;;;;5054221;28;20664;-67
2021/12/04 07:03:27;;;;;;;1.00;0.80;;;4.10;99.90;;;;;;5054397;28;20262;-67
2021/12/04 07:05:54;;;;;;;0.93;0.82;;;4.10;99.90;;;;;;5054419;28;20251;-67
2021/12/04 07:08:21;;;;;;;0.88;0.88;;;4.10;99.90;;;;;;5054054;28;20587;-68
2021/12/04 07:10:48;;;;;;;1.52;1.00;;;4.10;99.90;;;;;;5054161;28;20212;-67
2021/12/04 07:13:14;;;;;;;0.80;0.70;;;4.20;99.90;;;;;;5053649;28;20221;-69
2021/12/04 07:15:44;;;;;;;1.15;0.70;;;4.20;99.90;;;;;;5054212;28;20212;-68
2021/12/04 07:18:13;;;;;;;0.98;0.88;;;4.30;99.90;;;;;;5053847;28;20205;-68
2021/12/04 07:20:40;;;;;;;0.80;0.77;;;4.30;99.90;;;;;;5054209;28;20209;-70
2021/12/04 07:23:07;;;;;;;0.98;0.80;;;4.30;99.90;;;;;;5053631;28;20252;-69
2021/12/04 07:25:33;;;;;;;1.00;0.70;;;4.40;99.90;;;;;;5054030;28;20209;-69
2021/12/04 07:28:00;;;;;;;1.23;1.00;;;4.40;99.90;;;;;;5054090;28;20212;-69
2021/12/04 07:30:27;;;;;;;1.30;0.88;;;4.40;99.90;;;;;;5053586;28;20228;-68
2021/12/04 07:32:54;;;;;;;0.90;0.70;;;4.50;99.90;;;;;;5053418;28;20231;-69
2021/12/04 07:35:22;;;;;;;0.80;0.75;;;4.40;99.90;;;;;;5053381;28;20223;-66
2021/12/04 07:37:49;;;;;;;1.00;0.82;;;4.50;99.90;;;;;;5053305;28;20322;-68
2021/12/04 07:40:16;;;;;;;0.70;0.70;;;4.50;99.90;;;;;;5053532;28;20204;-69
2021/12/04 07:45:11;;;;;;;1.40;0.93;;;4.50;99.90;;;;;;5050302;28;20204;-67
2021/12/04 07:47:37;;;;;;;0.90;0.90;;;4.50;99.90;;;;;;5053457;28;20228;-67
2021/12/04 07:50:06;;;;;;;0.80;0.70;;;4.50;99.90;;;;;;5052572;28;20221;-67
2021/12/04 07:52:35;;;;;;;2.20;0.93;;;4.50;99.90;;;;;;5052471;28;20553;-67
2021/12/04 07:55:02;;;;;;;1.10;0.90;;;4.50;99.90;;;;;;5053214;28;20201;-67
2021/12/04 07:57:29;;;;;;;0.90;0.80;;;4.50;99.90;;;;;;5053502;28;20251;-67
2021/12/04 07:59:55;;;;;;;0.90;0.80;;;4.50;99.90;;;;;;5053102;28;20205;-67
2021/12/04 08:02:22;;;;;;;1.00;0.90;;;4.40;99.90;;;;;;5052713;28;20687;-67
2021/12/04 08:04:49;;;;;;;1.00;0.80;;;4.40;99.90;;;;;;5053055;28;20727;-67
2021/12/04 08:07:15;;;;;;;0.80;0.70;;;4.50;99.90;;;;;;5052784;28;20201;-67
2021/12/04 08:09:43;;;;;;;1.10;1.00;;;4.50;99.90;;;;;;5053077;28;20613;-67
2021/12/04 08:12:11;;;;;;;1.70;0.80;;;4.50;99.90;;;;;;5052352;28;20614;-67
2021/12/04 08:14:38;;;;;;;5.65;1.30;;;4.50;99.90;;;;;;5053016;28;20663;-67
2021/12/04 08:17:04;;;;;;;1.60;1.20;;;4.50;99.90;;;;;;5052730;28;20212;-66
2021/12/04 08:19:32;;;;;;;1.15;0.93;;;4.50;99.90;;;;;;5053024;28;20197;-67
2021/12/04 08:21:58;;;;;;;1.90;0.90;;;4.60;99.90;;;;;;5052327;28;20201;-67
2021/12/04 08:24:25;;;;;;;1.05;0.90;;;4.60;99.90;;;;;;5046556;28;20218;-67
2021/12/04 08:26:53;;;;;;;2.00;0.95;;;4.60;99.90;;;;;;5042918;28;20189;-66
2021/12/04 08:29:20;;;;;;;0.98;0.90;;;4.60;99.90;;;;;;5043104;28;20218;-67
2021/12/04 08:31:47;;;;;;;0.95;0.85;;;4.70;99.90;;;;;;5041236;28;20255;-67
2021/12/04 08:34:15;;;;;;;1.10;0.88;;;4.70;99.90;;;;;;5042505;28;20217;-67
2021/12/04 08:36:42;;;;;;;1.13;0.90;;;4.70;99.90;;;;;;5043495;28;20205;-67
2021/12/04 08:39:10;;;;;;;1.20;1.00;;;4.80;99.90;;;;;;5043303;28;20597;-67
2021/12/04 08:41:37;;;;;;;1.15;0.90;;;4.80;99.90;;;;;;5041938;28;20193;-67
2021/12/04 08:44:05;;;;;;;1.27;0.90;;;4.80;99.90;;;;;;5046486;28;20224;-67
2021/12/04 08:46:34;;;;;;;1.25;1.00;;;4.80;99.90;;;;;;5052543;28;20208;-67
2021/12/04 08:49:01;;;;;;;1.60;0.90;;;4.90;99.90;;;;;;5052055;28;20225;-67
2021/12/04 08:51:29;;;;;;;1.20;1.00;;;4.90;99.90;;;;;;5051492;28;20205;-67
2021/12/04 08:53:56;;;;;;;1.13;0.93;;;4.90;99.90;;;;;;5051520;28;20231;-67
2021/12/04 08:56:23;;;;;;;1.10;1.00;;;4.90;99.90;;;;;;5051947;28;20197;-66
2021/12/04 08:58:50;;;;;;;1.38;1.05;;;4.90;99.90;;;;;;5051880;28;20205;-67
2021/12/04 09:01:23;;;;;;;1.55;1.10;;;5.00;99.90;;;;;;5051163;28;20323;-67
2021/12/04 09:03:52;;;;;;;2.13;0.98;;;5.10;99.90;;;;;;5050792;28;20217;-67
2021/12/04 09:06:20;;;;;;;2.83;1.20;;;5.10;99.90;;;;;;5051506;28;20204;-66
2021/12/04 09:08:47;;;;;;;2.25;1.05;;;5.20;99.90;;;;;;5051651;28;20687;-67
2021/12/04 09:11:17;;;;;;;2.20;1.30;;;5.20;99.90;;;;;;5050764;28;20200;-68
2021/12/04 09:13:45;;;;;;;1.85;1.40;;;5.20;99.90;;;;;;5051291;28;20262;-67
2021/12/04 09:16:12;;;;;;;1.40;1.23;;;5.20;99.90;;;;;;5051270;28;20594;-67
2021/12/04 09:18:40;;;;;;;1.00;0.90;;;5.20;99.90;;;;;;5051379;28;20204;-67
2021/12/04 09:21:10;;;;;;;1.42;1.05;;;5.30;99.90;;;;;;5050070;28;20578;-67
2021/12/04 09:23:39;;;;;;;2.35;1.23;;;5.30;99.90;;;;;;5042486;28;20225;-67
2021/12/04 09:26:11;;;;;;;1.25;1.15;;;5.40;99.90;;;;;;5050392;28;20207;-68
2021/12/04 09:28:45;;;;;;;1.38;1.27;;;5.40;99.90;;;;;;5051562;28;20205;-68
2021/12/04 09:34:23;;;;;;;1.20;1.02;;;5.50;99.90;;;;;;5028377;28;20250;-68
2021/12/04 10:13:20;;;;;;;1.70;1.20;;;6.50;99.90;;;;;;5030130;28;20225;-68
2021/12/04 10:32:30;;;;;;;1.10;1.00;;;7.10;99.90;;;;;;5049363;28;20319;-67
2021/12/04 10:35:01;;;;;;;1.45;1.33;;;7.10;99.90;;;;;;5049926;28;20205;-67
2021/12/04 10:37:30;;;;;;;1.27;1.00;;;7.10;99.90;;;;;;5049589;28;20201;-68
2021/12/04 10:40:01;;;;;;;1.50;1.17;;;7.20;99.90;;;;;;5049348;28;20229;-67
2021/12/04 10:42:33;;;;;;;1.95;1.20;;;7.10;99.90;;;;;;5040083;28;20198;-68
2021/12/04 10:45:00;;;;;;;1.52;1.13;;;7.20;99.90;;;;;;5038181;28;20198;-67
2021/12/04 10:47:28;;;;;;;2.60;1.10;;;7.20;99.90;;;;;;5035762;28;20240;-67
2021/12/04 10:50:08;;;;;;;1.27;0.90;;;7.30;99.90;;;;;;5029440;28;20229;-70
2021/12/04 10:52:47;;;;;;;1.25;1.02;;;7.40;99.90;;;;;;5037993;28;20216;-68
2021/12/04 10:55:22;;;;;;;1.50;1.40;;;7.40;99.90;;;;;;5038935;28;20199;-69
2021/12/04 11:00:58;;;;;;;1.10;1.00;;;7.60;99.90;;;;;;5030777;28;20223;-68
2021/12/04 11:03:42;;;;;;;2.13;1.10;;;7.70;99.90;;;;;;5029298;28;20240;-68
2021/12/04 11:26:12;;;;;;;1.30;1.00;;;8.00;99.90;;;;;;4966732;28;20198;-69
2021/12/04 11:37:07;;;;;;;1.10;1.00;;;8.10;99.90;;;;;;5033137;28;20235;-69
2021/12/04 11:42:26;;;;;;;1.38;1.20;;;8.10;99.90;;;;;;5031919;28;20566;-68
2021/12/04 11:45:08;;;;;;;1.35;1.00;;;8.10;99.90;;;;;;5032415;28;20315;-68
2021/12/04 11:47:37;;;;;;;1.30;1.15;;;8.10;99.90;;;;;;5032759;28;20213;-69
2021/12/04 11:50:15;;;;;;;0.90;0.80;;;8.10;99.90;;;;;;5033055;28;20303;-69
2021/12/04 11:52:46;;;;;;;1.15;1.05;;;8.10;99.90;;;;;;5031985;28;20210;-69
2021/12/04 11:55:13;;;;;;;1.17;0.90;;;8.20;99.90;;;;;;5032779;28;20206;-69
2021/12/04 11:57:39;;;;;;;1.10;1.00;;;8.20;99.90;;;;;;5032142;28;20634;-68
2021/12/04 12:00:17;;;;;;;1.75;1.00;;;8.20;99.90;;;;;;5032585;28;20208;-69
2021/12/04 12:02:45;;;;;;;1.00;0.90;;;8.30;99.90;;;;;;5031704;28;20210;-68
2021/12/04 12:05:17;;;;;;;0.93;0.82;;;8.30;99.90;;;;;;5032013;28;20208;-69
2021/12/04 12:07:51;;;;;;;2.15;1.60;;;8.40;99.90;;;;;;5032233;28;20209;-69
2021/12/04 12:10:18;;;;;;;1.70;1.00;;;8.40;99.90;;;;;;5030432;28;20225;-69
2021/12/04 12:12:48;;;;;;;1.00;0.90;;;8.40;99.90;;;;;;5031175;28;20396;-68
2021/12/04 12:15:30;;;;;;;1.10;1.00;;;8.40;99.90;;;;;;5031771;28;20229;-69
2021/12/04 12:17:57;;;;;;;3.40;1.00;;;8.40;99.90;;;;;;5032066;28;20201;-70
2021/12/04 12:20:40;;;;;;;1.10;0.90;;;8.40;99.90;;;;;;5031683;28;20201;-69
2021/12/04 12:23:09;;;;;;;1.33;1.05;;;8.40;99.90;;;;;;5031235;28;20249;-69
2021/12/04 12:25:56;;;;;;;1.67;1.20;;;8.40;99.90;;;;;;5031615;28;20316;-70
2021/12/04 12:36:02;;;;;;;1.17;1.02;;;8.40;99.90;;;;;;5031379;28;20228;-68
2021/12/04 12:37:17;;;;;;;1.48;1.00;;;8.40;99.90;;;;;;5031566;28;20205;-70
2021/12/04 12:39:58;;;;;;;1.10;0.90;;;8.30;99.90;;;;;;5031227;28;20225;-70
2021/12/04 12:42:31;;;;;;;1.55;1.10;;;8.30;99.90;;;;;;5030249;28;20209;-68
2021/12/04 12:45:17;;;;;;;1.73;1.10;;;8.30;99.90;;;;;;5031278;28;20205;-69
2021/12/04 12:47:51;;;;;;;1.27;1.17;;;8.20;99.90;;;;;;5030595;28;20624;-69
2021/12/04 12:50:29;;;;;;;1.50;1.17;;;8.30;99.90;;;;;;5039002;28;20220;-70
2021/12/04 12:53:03;;;;;;;4.40;2.60;;;8.30;99.90;;;;;;5049401;28;20220;-69
2021/12/04 12:55:34;;;;;;;1.50;1.05;;;8.30;99.90;;;;;;5050089;28;20197;-69
2021/12/04 12:58:13;;;;;;;1.80;1.10;;;8.20;99.90;;;;;;5033125;28;20202;-69
2021/12/04 13:11:53;;;;;;;1.65;1.17;;;8.20;99.90;;;;;;5042376;28;20223;-68
2021/12/04 13:14:23;;;;;;;1.30;1.02;;;8.10;99.90;;;;;;5050352;28;20209;-69
2021/12/04 13:16:52;;;;;;;1.42;1.10;;;8.10;99.90;;;;;;5044857;28;20205;-69
2021/12/04 13:19:23;;;;;;;2.25;1.20;;;8.10;99.90;;;;;;5050427;28;20201;-69
2021/12/04 13:21:52;;;;;;;1.20;1.10;;;8.10;99.90;;;;;;5049903;28;20786;-69
2021/12/04 13:24:23;;;;;;;1.23;1.13;;;8.10;99.90;;;;;;5050314;28;20216;-69
2021/12/04 13:26:53;;;;;;;1.20;1.10;;;8.10;99.90;;;;;;5050117;28;20205;-69
2021/12/04 13:29:23;;;;;;;1.10;1.00;;;8.10;99.90;;;;;;5050423;28;20201;-69
2021/12/04 13:31:54;;;;;;;1.63;1.20;;;8.20;99.90;;;;;;5044615;28;20229;-69
2021/12/04 13:34:27;;;;;;;1.10;1.00;;;8.20;99.90;;;;;;5046761;28;20220;-69
2021/12/04 13:36:55;;;;;;;1.45;1.30;;;8.20;99.90;;;;;;5040884;28;20197;-69
2021/12/04 13:39:23;;;;;;;1.48;1.30;;;8.20;99.90;;;;;;5047224;28;20198;-70
2021/12/04 13:41:52;;;;;;;1.33;1.23;;;8.10;99.90;;;;;;5047522;28;20197;-70
2021/12/04 13:44:21;;;;;;;1.30;1.20;;;8.10;99.90;;;;;;5079339;22;20231;-69
2021/12/04 13:46:50;;;;;;;1.65;0.90;;;8.10;99.90;;;;;;5070607;28;20572;-68
2021/12/04 13:49:20;;;;;;;1.60;1.13;;;8.10;99.90;;;;;;5070545;28;20204;-67
2021/12/04 13:51:54;;;;;;;1.25;1.10;;;8.10;99.90;;;;;;5069331;28;20227;-69
2021/12/04 13:54:21;;;;;;;1.45;1.15;;;8.00;99.90;;;;;;5070758;28;20220;-69
2021/12/04 13:56:48;;;;;;;1.30;1.20;;;8.00;99.90;;;;;;5070445;28;20200;-70
2021/12/04 13:59:15;;;;;;;2.00;1.10;;;8.00;99.90;;;;;;5070903;28;20258;-68
2021/12/04 14:01:44;;;;;;;1.92;1.80;;;7.90;99.90;;;;;;5069391;28;20637;-68
2021/12/04 14:04:16;;;;;;;1.33;1.10;;;7.90;99.90;;;;;;5070794;28;20251;-68
2021/12/04 14:06:53;;;;;;;1.30;1.20;;;7.80;99.90;;;;;;5070360;28;20211;-69
2021/12/04 14:09:21;;;;;;;3.53;1.20;;;7.80;99.90;;;;;;5071081;28;20285;-68
2021/12/04 14:11:47;;;;;;;1.88;1.50;;;7.80;99.90;;;;;;5069858;28;20223;-70
2021/12/04 14:14:17;;;;;;;1.25;1.13;;;7.80;99.90;;;;;;5070159;28;20311;-68
2021/12/04 14:16:45;;;;;;;1.30;1.20;;;7.80;99.90;;;;;;5070279;28;20207;-69
2021/12/04 14:19:14;;;;;;;1.20;1.10;;;7.80;99.90;;;;;;5070236;28;20208;-69
2021/12/04 14:21:41;;;;;;;1.35;1.20;;;7.80;99.90;;;;;;5068294;28;20587;-68
2021/12/04 14:24:10;;;;;;;1.70;1.45;;;7.70;99.90;;;;;;5070810;28;20223;-69
2021/12/04 14:26:36;;;;;;;2.40;1.35;;;7.70;99.90;;;;;;5070166;28;20207;-69
2021/12/04 14:29:04;;;;;;;1.45;1.23;;;7.70;99.90;;;;;;5070528;28;20208;-68
2021/12/04 14:31:32;;;;;;;2.42;1.40;;;7.70;99.90;;;;;;5069160;28;20228;-68
2021/12/04 14:33:59;;;;;;;2.67;1.60;;;7.70;99.90;;;;;;5070020;28;20228;-68
2021/12/04 14:36:26;;;;;;;1.40;1.20;;;7.70;99.90;;;;;;5069809;28;20303;-68
2021/12/04 14:38:53;;;;;;;1.90;1.50;;;7.70;99.90;;;;;;5070061;28;20211;-68
2021/12/04 14:41:23;;;;;;;2.30;1.50;;;7.70;99.90;;;;;;5069493;28;20345;-68
2021/12/04 14:43:49;;;;;;;3.05;1.30;;;7.60;99.90;;;;;;5069781;28;20232;-70
2021/12/04 14:46:18;;;;;;;1.42;1.30;;;7.60;99.90;;;;;;5070175;28;20211;-68
2021/12/04 14:48:51;;;;;;;1.80;1.40;;;7.60;99.90;;;;;;5064235;28;20204;-68
2021/12/04 14:51:21;;;;;;;1.50;1.40;;;7.60;99.90;;;;;;5063936;28;20274;-68
2021/12/04 14:53:50;;;;;;;1.40;1.20;;;7.70;99.90;;;;;;5068036;28;20231;-68
2021/12/04 14:56:19;;;;;;;4.63;1.90;;;7.70;99.90;;;;;;5068739;28;20209;-68
2021/12/04 14:58:48;;;;;;;1.50;1.40;;;7.60;99.90;;;;;;5068640;28;20843;-68
2021/12/04 15:01:18;;;;;;;1.70;1.50;;;7.60;99.90;;;;;;5067619;28;20452;-68
2021/12/04 15:03:51;;;;;;;2.40;1.45;;;7.60;99.90;;;;;;5054441;28;20224;-69
2021/12/04 15:06:19;;;;;;;3.72;2.00;;;7.60;99.90;;;;;;5072551;28;20291;-68
2021/12/04 15:08:49;;;;;;;2.05;1.52;;;7.60;99.90;;;;;;5071846;28;20231;-67
2021/12/04 15:11:19;;;;;;;1.77;1.48;;;7.60;99.90;;;;;;5071532;28;20223;-68
2021/12/04 15:13:53;;;;;;;4.35;1.90;;;7.60;99.90;;;;;;5067705;28;20289;-68
2021/12/04 15:16:29;;;;;;;3.50;1.90;;;7.60;99.90;;;;;;5072103;28;20203;-68
2021/12/04 15:19:09;;;;;;;2.63;1.50;;;7.60;99.90;;;;;;5071791;28;20236;-68
2021/12/04 15:21:40;;;;;;;1.65;1.52;;;7.60;99.90;;;;;;5070999;28;20196;-68
2021/12/04 15:24:13;;;;;;;1.95;1.30;;;7.50;99.90;;;;;;5072500;28;20224;-68
2021/12/04 15:26:41;;;;;;;1.63;1.48;;;7.50;99.90;;;;;;5071552;28;21075;-69
2021/12/04 15:29:16;;;;;;;1.95;1.75;;;7.50;99.90;;;;;;5072593;28;20299;-69
2021/12/04 15:31:43;;;;;;;1.40;1.30;;;7.50;99.90;;;;;;5071121;28;20311;-69
2021/12/04 15:34:10;;;;;;;1.80;1.58;;;7.50;99.90;;;;;;5071739;28;20228;-68
2021/12/04 15:36:39;;;;;;;1.70;1.55;;;7.50;99.90;;;;;;5071865;28;20262;-68
2021/12/04 15:39:12;;;;;;;3.03;1.83;;;7.50;99.90;;;;;;5072713;28;20212;-69
2021/12/04 15:41:56;;;;;;;2.10;1.60;;;7.60;99.90;;;;;;5071183;28;20204;-69
2021/12/04 15:44:40;;;;;;;1.55;1.42;;;7.60;99.90;;;;;;5072469;28;20232;-68
2021/12/04 15:47:22;;;;;;;1.75;1.65;;;7.60;99.90;;;;;;5072386;28;20675;-68
2021/12/04 15:50:22;;;;;;;4.53;1.70;;;7.60;99.90;;;;;;5071292;28;20258;-69
2021/12/04 15:52:58;;;;;;;4.30;1.65;;;7.60;99.90;;;;;;5071322;28;20668;-69